Time;durP1;ratioP1;P1;durP2;ratioP2;P2;SDS_P1;SDS_P2;PMS_P1;PMS_P2;Temp;Humidity;BMP_temperature;BMP_pressure;BME280_temperature;BME280_humidity;BME280_pressure;Samples;Min_cycle;Max_cycle;Signal;HPM_P1;HPM_P2
2023/05/17 00:02:10;;;;;;;5.18;2.80;;;21.30;44.80;;;;;;5056152;28;20063;-70
2023/05/17 00:04:36;;;;;;;3.85;2.90;;;21.30;44.90;;;;;;5056469;28;20029;-70
2023/05/17 00:07:02;;;;;;;4.57;2.83;;;21.30;45.00;;;;;;5056351;28;20380;-70
2023/05/17 00:09:27;;;;;;;5.32;2.55;;;21.20;44.90;;;;;;5056207;28;20032;-70
2023/05/17 00:11:53;;;;;;;3.05;2.55;;;21.20;45.00;;;;;;5055294;28;20044;-70
2023/05/17 00:14:19;;;;;;;4.72;2.70;;;21.20;45.00;;;;;;5056207;28;20025;-70
2023/05/17 00:16:44;;;;;;;2.53;2.30;;;21.20;45.10;;;;;;5055865;28;20021;-70
2023/05/17 00:19:10;;;;;;;3.28;2.53;;;21.20;45.10;;;;;;5056538;28;20041;-70
2023/05/17 00:21:36;;;;;;;3.13;2.53;;;21.20;45.20;;;;;;5055999;28;20029;-70
2023/05/17 00:24:01;;;;;;;3.50;2.30;;;21.20;45.20;;;;;;5055880;28;20037;-71
2023/05/17 00:26:27;;;;;;;3.00;2.40;;;21.20;45.20;;;;;;5055921;28;20021;-70
2023/05/17 00:28:52;;;;;;;3.28;2.55;;;21.20;45.20;;;;;;5055704;28;20036;-70
2023/05/17 00:31:18;;;;;;;4.18;2.42;;;21.20;45.20;;;;;;5054204;28;20490;-70
2023/05/17 00:33:45;;;;;;;3.17;2.65;;;21.20;45.20;;;;;;5054970;28;20064;-69
2023/05/17 00:36:10;;;;;;;4.22;2.53;;;21.20;45.30;;;;;;5055879;28;20029;-70
2023/05/17 00:38:36;;;;;;;3.63;2.63;;;21.20;45.30;;;;;;5054386;28;20383;-69
2023/05/17 00:41:02;;;;;;;2.83;2.33;;;21.20;45.30;;;;;;5055744;28;20032;-70
2023/05/17 00:43:27;;;;;;;3.35;2.60;;;21.20;45.30;;;;;;5055439;28;20029;-70
2023/05/17 00:45:53;;;;;;;3.40;2.58;;;21.20;45.40;;;;;;5055451;28;20025;-70
2023/05/17 00:48:24;;;;;;;3.47;2.10;;;21.20;45.40;;;;;;5055673;28;20043;-70
2023/05/17 00:50:51;;;;;;;3.53;2.53;;;21.20;45.50;;;;;;5055614;28;20035;-70
2023/05/17 00:53:18;;;;;;;4.68;2.50;;;21.20;45.50;;;;;;5055428;28;20103;-70
2023/05/17 00:55:44;;;;;;;3.00;2.30;;;21.20;45.50;;;;;;5054373;28;20040;-71
2023/05/17 00:58:13;;;;;;;3.65;2.63;;;21.20;45.60;;;;;;5053925;28;20040;-70
2023/05/17 01:00:40;;;;;;;3.50;2.60;;;21.20;45.60;;;;;;5053813;28;20496;-70
2023/05/17 01:03:05;;;;;;;3.00;2.60;;;21.20;45.60;;;;;;5055205;28;20037;-70
2023/05/17 01:05:31;;;;;;;4.75;2.65;;;21.20;45.70;;;;;;5055240;28;20081;-70
2023/05/17 01:07:57;;;;;;;4.55;2.92;;;21.10;45.70;;;;;;5054944;28;20029;-70
2023/05/17 01:10:36;;;;;;;3.83;2.50;;;21.10;45.70;;;;;;5054917;28;20037;-71
2023/05/17 01:13:14;;;;;;;3.95;2.75;;;21.10;45.70;;;;;;5054812;28;20025;-70
2023/05/17 01:15:49;;;;;;;3.50;2.60;;;21.10;45.70;;;;;;5055108;28;20036;-70
2023/05/17 01:18:34;;;;;;;4.60;2.90;;;21.10;45.80;;;;;;5054970;28;20102;-70
2023/05/17 01:21:02;;;;;;;5.32;3.08;;;21.10;45.80;;;;;;5054652;28;20456;-70
2023/05/17 01:24:15;;;;;;;3.95;2.88;;;21.10;45.90;;;;;;5053210;28;20045;-70
2023/05/17 01:26:47;;;;;;;5.05;3.22;;;21.10;46.20;;;;;;5054799;28;20029;-70
2023/05/17 01:29:15;;;;;;;4.57;3.05;;;21.00;45.90;;;;;;5054880;28;20032;-70
2023/05/17 01:31:41;;;;;;;3.83;2.83;;;21.00;45.90;;;;;;5054384;28;20063;-70
2023/05/17 01:34:08;;;;;;;3.88;3.22;;;21.00;45.90;;;;;;5054698;28;20029;-70
2023/05/17 01:36:34;;;;;;;6.80;3.30;;;21.00;45.90;;;;;;5037125;28;20387;-70
2023/05/17 01:39:00;;;;;;;3.65;2.92;;;21.00;45.90;;;;;;5053117;28;20032;-70
2023/05/17 01:41:50;;;;;;;3.60;2.83;;;21.00;45.90;;;;;;5053307;28;20556;-70
2023/05/17 01:44:19;;;;;;;5.88;2.85;;;21.00;46.00;;;;;;5054125;28;20035;-70
2023/05/17 01:46:46;;;;;;;7.70;3.10;;;21.00;45.80;;;;;;5053182;28;20021;-70
2023/05/17 01:49:26;;;;;;;3.97;2.90;;;21.00;45.80;;;;;;5054378;28;20059;-70
2023/05/17 01:52:01;;;;;;;3.53;2.95;;;21.10;45.90;;;;;;5053361;28;20395;-70
2023/05/17 01:54:32;;;;;;;5.13;3.00;;;21.10;45.80;;;;;;5054262;28;20025;-70
2023/05/17 01:57:00;;;;;;;4.22;3.25;;;21.10;45.70;;;;;;5052794;28;20549;-70
2023/05/17 01:59:26;;;;;;;4.88;3.55;;;21.10;45.70;;;;;;5053148;28;20403;-70
2023/05/17 02:01:57;;;;;;;7.38;3.90;;;21.10;45.70;;;;;;5052854;28;20029;-70
2023/05/17 02:04:23;;;;;;;6.28;3.88;;;21.10;45.70;;;;;;5052817;28;20061;-70
2023/05/17 02:06:48;;;;;;;8.05;4.03;;;21.10;45.70;;;;;;5053690;28;20057;-70
2023/05/17 02:09:14;;;;;;;7.55;4.00;;;21.10;45.70;;;;;;5053843;28;20382;-70
2023/05/17 02:11:40;;;;;;;6.28;3.67;;;21.10;45.70;;;;;;5054303;28;20033;-70
2023/05/17 02:14:05;;;;;;;6.18;4.03;;;21.10;45.70;;;;;;5052663;28;20059;-70
2023/05/17 02:16:31;;;;;;;8.18;4.22;;;21.10;45.80;;;;;;5053934;28;20036;-70
2023/05/17 02:18:56;;;;;;;7.65;3.95;;;21.10;45.90;;;;;;5053898;28;20036;-70
2023/05/17 02:21:22;;;;;;;5.60;3.75;;;21.10;45.90;;;;;;5053593;28;20455;-70
2023/05/17 02:23:48;;;;;;;5.75;3.90;;;21.10;46.00;;;;;;5053888;28;20060;-70
2023/05/17 02:26:13;;;;;;;7.30;3.63;;;21.00;46.00;;;;;;5053606;28;20095;-70
2023/05/17 02:28:39;;;;;;;7.03;3.47;;;21.00;46.00;;;;;;5052000;28;20028;-71
2023/05/17 02:31:08;;;;;;;6.00;3.40;;;21.00;46.10;;;;;;5053462;28;20029;-71
2023/05/17 02:33:34;;;;;;;6.40;3.35;;;21.00;46.10;;;;;;5053670;28;20029;-71
2023/05/17 02:35:59;;;;;;;4.53;3.30;;;21.00;46.20;;;;;;5052844;28;20027;-71
2023/05/17 02:38:25;;;;;;;4.40;3.38;;;20.90;46.20;;;;;;5053300;28;20467;-71
2023/05/17 02:40:51;;;;;;;5.50;3.42;;;20.90;46.20;;;;;;5053749;28;20033;-69
2023/05/17 02:43:16;;;;;;;5.20;3.55;;;20.90;46.30;;;;;;5053367;28;20025;-71
2023/05/17 02:45:45;;;;;;;6.03;3.17;;;20.90;46.40;;;;;;5053417;28;20025;-70
2023/05/17 02:48:10;;;;;;;6.53;3.63;;;20.90;46.40;;;;;;5053415;28;20071;-71
2023/05/17 02:50:36;;;;;;;4.25;3.20;;;20.90;46.50;;;;;;5052119;28;20036;-70
2023/05/17 02:53:02;;;;;;;7.25;3.28;;;20.90;46.60;;;;;;5053300;28;20482;-70
2023/05/17 02:55:27;;;;;;;4.95;3.35;;;20.80;46.60;;;;;;5052203;28;20105;-71
2023/05/17 02:57:53;;;;;;;3.88;2.90;;;20.80;46.60;;;;;;5053354;28;20036;-70
2023/05/17 03:00:19;;;;;;;5.93;3.40;;;20.80;46.60;;;;;;5053203;28;20060;-70
2023/05/17 03:02:45;;;;;;;5.10;3.17;;;20.80;46.60;;;;;;5053327;28;20091;-70
2023/05/17 03:05:10;;;;;;;5.22;4.10;;;20.90;46.70;;;;;;5052997;28;20100;-70
2023/05/17 03:07:36;;;;;;;9.10;6.57;;;20.90;46.70;;;;;;5053170;28;20029;-70
2023/05/17 03:10:02;;;;;;;7.18;5.05;;;20.90;46.60;;;;;;5053270;28;20036;-71
2023/05/17 03:12:27;;;;;;;8.15;5.47;;;20.90;46.60;;;;;;5053003;28;20112;-69
2023/05/17 03:14:53;;;;;;;8.45;6.50;;;20.90;46.70;;;;;;5053180;28;20383;-70
2023/05/17 03:17:18;;;;;;;7.25;5.55;;;20.90;46.60;;;;;;5052590;28;20033;-70
2023/05/17 03:19:44;;;;;;;7.10;5.75;;;20.90;46.60;;;;;;5052827;28;20025;-70
2023/05/17 03:22:10;;;;;;;7.72;5.60;;;20.90;46.70;;;;;;5033666;28;20464;-71
2023/05/17 03:24:35;;;;;;;7.05;5.13;;;21.00;46.70;;;;;;5032037;28;20124;-70
2023/05/17 03:27:01;;;;;;;7.68;5.00;;;21.00;46.70;;;;;;5033238;28;20076;-71
2023/05/17 03:29:27;;;;;;;7.32;4.82;;;21.00;46.80;;;;;;5032968;28;20033;-70
2023/05/17 03:31:52;;;;;;;7.13;4.68;;;21.00;46.80;;;;;;5047331;28;20088;-70
2023/05/17 03:34:18;;;;;;;7.05;4.30;;;21.00;46.80;;;;;;5034303;28;20037;-70
2023/05/17 03:36:44;;;;;;;5.18;4.35;;;21.00;46.80;;;;;;5033033;28;20100;-71
2023/05/17 03:39:09;;;;;;;8.13;5.22;;;21.00;46.80;;;;;;5045221;28;20111;-70
2023/05/17 03:41:35;;;;;;;12.77;9.80;;;21.00;46.80;;;;;;5051036;28;20044;-70
2023/05/17 03:44:01;;;;;;;10.00;7.97;;;21.10;47.00;;;;;;5051925;28;20060;-71
2023/05/17 03:46:26;;;;;;;11.02;8.60;;;21.10;47.00;;;;;;5053078;28;20100;-73
2023/05/17 03:48:52;;;;;;;10.70;7.90;;;21.10;47.10;;;;;;5054488;28;20032;-72
2023/05/17 03:51:18;;;;;;;10.90;7.53;;;21.10;47.10;;;;;;5055650;28;20052;-72
2023/05/17 03:53:43;;;;;;;8.35;6.82;;;21.10;47.10;;;;;;5038072;28;20033;-70
2023/05/17 03:56:10;;;;;;;13.35;8.85;;;21.10;47.20;;;;;;5054289;28;20029;-71
2023/05/17 03:58:35;;;;;;;11.75;8.18;;;21.20;47.30;;;;;;5055873;28;20380;-72
2023/05/17 04:01:01;;;;;;;9.98;8.05;;;21.20;47.40;;;;;;5053780;28;20029;-70
2023/05/17 04:03:27;;;;;;;12.02;8.43;;;21.20;47.40;;;;;;5055494;28;20040;-71
2023/05/17 04:06:00;;;;;;;10.57;7.15;;;21.20;47.50;;;;;;5055141;28;20029;-71
2023/05/17 04:08:25;;;;;;;9.70;6.97;;;21.20;47.50;;;;;;5055662;28;20577;-81
2023/05/17 04:10:51;;;;;;;10.30;6.70;;;21.30;47.60;;;;;;5046114;28;20029;-73
2023/05/17 04:13:17;;;;;;;9.00;6.35;;;21.30;47.50;;;;;;5044632;28;20040;-73
2023/05/17 04:15:42;;;;;;;11.05;5.60;;;21.30;47.50;;;;;;5041022;28;20028;-73
2023/05/17 04:18:08;;;;;;;6.97;6.00;;;21.40;47.60;;;;;;5044960;28;20021;-73
2023/05/17 04:20:33;;;;;;;8.13;5.28;;;21.40;47.50;;;;;;5043985;28;20119;-74
2023/05/17 04:22:59;;;;;;;8.57;5.22;;;21.40;47.50;;;;;;5043286;28;20471;-73
2023/05/17 04:25:25;;;;;;;6.47;5.05;;;21.40;47.50;;;;;;5054581;28;20111;-73
2023/05/17 04:27:50;;;;;;;6.55;5.03;;;21.40;47.50;;;;;;5054994;28;20029;-73
2023/05/17 04:30:16;;;;;;;7.63;4.65;;;21.50;47.50;;;;;;5053884;28;20040;-73
2023/05/17 04:32:42;;;;;;;7.63;4.63;;;21.50;47.50;;;;;;5055177;28;20495;-72
2023/05/17 04:35:08;;;;;;;6.75;4.45;;;21.50;47.60;;;;;;5054422;28;20161;-73
2023/05/17 04:37:33;;;;;;;6.00;4.50;;;21.50;47.60;;;;;;5054496;28;20033;-75
2023/05/17 04:39:59;;;;;;;5.95;4.70;;;21.60;47.60;;;;;;5054680;28;20021;-74
2023/05/17 04:42:25;;;;;;;5.35;4.57;;;21.60;47.60;;;;;;5054826;28;20025;-74
2023/05/17 04:44:51;;;;;;;6.45;4.32;;;21.60;47.60;;;;;;5054947;28;20079;-76
2023/05/17 04:47:17;;;;;;;7.38;5.10;;;21.60;47.60;;;;;;5054666;28;20025;-73
2023/05/17 04:49:43;;;;;;;6.40;5.10;;;21.60;47.60;;;;;;5054511;28;20021;-71
2023/05/17 04:52:09;;;;;;;9.68;7.00;;;21.70;47.60;;;;;;5054326;28;20021;-74
2023/05/17 04:54:35;;;;;;;9.32;6.28;;;21.70;47.60;;;;;;5054706;28;20025;-77
2023/05/17 04:57:02;;;;;;;7.43;5.55;;;21.70;47.60;;;;;;5054084;28;20021;-76
2023/05/17 04:59:28;;;;;;;10.07;6.40;;;21.70;47.50;;;;;;5058132;28;20456;-77
2023/05/17 05:01:53;;;;;;;8.05;5.63;;;21.70;47.60;;;;;;5054578;28;20036;-74
2023/05/17 05:04:19;;;;;;;8.50;5.25;;;21.80;47.60;;;;;;5054004;28;20030;-74
2023/05/17 05:06:44;;;;;;;9.32;5.65;;;21.80;47.60;;;;;;5054081;28;20032;-75
2023/05/17 05:09:10;;;;;;;7.53;4.90;;;21.80;47.60;;;;;;5054662;28;20059;-77
2023/05/17 05:11:36;;;;;;;7.18;5.30;;;21.80;47.50;;;;;;5054303;28;20045;-80
2023/05/17 05:14:01;;;;;;;7.15;4.80;;;21.80;47.50;;;;;;5054445;28;20074;-79
2023/05/17 05:16:27;;;;;;;9.23;4.53;;;21.90;47.50;;;;;;5051423;28;20029;-75
2023/05/17 05:18:52;;;;;;;9.52;4.60;;;21.90;47.50;;;;;;5042389;28;20029;-75
2023/05/17 05:21:18;;;;;;;6.28;4.68;;;21.90;47.50;;;;;;5045007;28;20479;-74
2023/05/17 05:23:44;;;;;;;9.57;4.43;;;21.90;47.50;;;;;;5054283;28;20373;-79
2023/05/17 05:26:09;;;;;;;4.78;3.88;;;22.00;47.50;;;;;;5054140;28;20708;-80
2023/05/17 05:28:36;;;;;;;5.10;4.00;;;22.00;47.50;;;;;;5050283;28;20068;-75
2023/05/17 05:31:01;;;;;;;8.38;4.72;;;22.00;47.50;;;;;;5042613;28;20028;-77
2023/05/17 05:33:27;;;;;;;7.80;4.28;;;22.00;47.50;;;;;;5042374;28;20021;-77
2023/05/17 05:35:54;;;;;;;7.45;4.10;;;22.00;47.50;;;;;;5042429;28;20037;-75
2023/05/17 05:38:20;;;;;;;8.20;4.32;;;22.10;47.50;;;;;;5042091;28;20021;-75
2023/05/17 05:40:48;;;;;;;6.28;3.80;;;22.10;47.50;;;;;;5043793;28;20048;-77
2023/05/17 05:43:15;;;;;;;5.68;3.75;;;22.10;47.40;;;;;;5043493;28;20033;-76
2023/05/17 05:45:44;;;;;;;5.57;3.78;;;22.20;47.50;;;;;;5041837;28;20037;-77
2023/05/17 05:48:11;;;;;;;7.95;3.67;;;22.20;47.40;;;;;;5041357;28;20021;-76
2023/05/17 05:50:37;;;;;;;7.53;4.05;;;22.30;47.60;;;;;;5043544;28;20040;-75
2023/05/17 05:53:03;;;;;;;5.93;3.15;;;22.30;47.30;;;;;;5041728;28;20026;-74
2023/05/17 05:55:28;;;;;;;6.32;3.50;;;22.40;47.30;;;;;;5040499;28;20102;-76
2023/05/17 05:57:54;;;;;;;5.20;3.40;;;22.40;47.20;;;;;;5034474;28;20083;-75
2023/05/17 06:00:20;;;;;;;6.45;3.67;;;22.50;47.20;;;;;;5034646;28;20026;-76
2023/05/17 06:02:45;;;;;;;7.65;3.65;;;22.50;47.10;;;;;;5040795;28;20122;-80
2023/05/17 06:05:11;;;;;;;6.40;3.55;;;22.60;47.10;;;;;;5045704;28;20032;-76
2023/05/17 06:07:37;;;;;;;5.00;3.90;;;22.70;47.00;;;;;;5038709;28;20113;-81
2023/05/17 06:10:02;;;;;;;4.57;3.70;;;22.80;47.00;;;;;;5036665;28;20075;-75
2023/05/17 06:12:28;;;;;;;4.68;3.30;;;22.80;46.90;;;;;;5036537;28;20026;-81
2023/05/17 06:14:54;;;;;;;8.20;3.72;;;22.90;46.80;;;;;;5034354;28;20030;-77
2023/05/17 06:17:20;;;;;;;8.15;3.42;;;23.00;46.80;;;;;;5035371;28;20030;-76
2023/05/17 06:19:47;;;;;;;5.45;3.67;;;23.10;46.70;;;;;;5046645;28;20036;-76
2023/05/17 06:22:14;;;;;;;5.60;3.90;;;23.10;46.60;;;;;;5049998;28;20037;-78
2023/05/17 06:24:40;;;;;;;5.63;3.90;;;23.20;46.70;;;;;;5048920;28;20033;-74
2023/05/17 06:27:06;;;;;;;4.78;3.60;;;23.20;46.60;;;;;;5046292;28;20043;-77
2023/05/17 06:29:31;;;;;;;4.80;3.53;;;23.30;46.70;;;;;;5035042;28;20034;-74
2023/05/17 06:31:58;;;;;;;5.15;3.58;;;23.40;46.80;;;;;;5034858;28;20067;-74
2023/05/17 06:34:24;;;;;;;6.97;3.88;;;23.40;46.90;;;;;;5033092;28;20025;-78
2023/05/17 06:36:50;;;;;;;5.47;3.53;;;23.50;47.10;;;;;;5031545;28;20068;-77
2023/05/17 06:39:16;;;;;;;5.57;3.90;;;23.60;47.20;;;;;;5047923;28;20060;-74
2023/05/17 06:41:42;;;;;;;5.90;3.90;;;23.60;47.20;;;;;;5052576;28;20029;-74
2023/05/17 06:44:07;;;;;;;6.15;3.70;;;23.70;47.30;;;;;;5050660;28;20183;-75
2023/05/17 06:46:33;;;;;;;4.03;3.05;;;23.70;47.40;;;;;;5051396;28;20116;-73
2023/05/17 06:48:59;;;;;;;5.63;3.65;;;23.80;47.50;;;;;;5053050;28;20033;-75
2023/05/17 06:51:24;;;;;;;5.20;3.30;;;23.80;47.50;;;;;;5052594;28;20033;-72
2023/05/17 06:53:50;;;;;;;7.20;3.30;;;23.90;47.50;;;;;;5052653;28;20033;-70
2023/05/17 06:56:15;;;;;;;4.00;3.33;;;23.90;47.60;;;;;;5052797;28;20033;-71
2023/05/17 06:58:41;;;;;;;6.22;3.15;;;23.90;47.60;;;;;;5052750;28;20383;-70
2023/05/17 07:01:07;;;;;;;14.38;3.50;;;23.90;47.60;;;;;;5045311;28;20463;-73
2023/05/17 07:03:32;;;;;;;12.23;3.38;;;24.00;47.60;;;;;;5033251;28;20431;-71
2023/05/17 07:05:58;;;;;;;15.73;3.85;;;24.00;47.50;;;;;;5033678;28;20443;-72
2023/05/17 07:08:24;;;;;;;6.32;3.30;;;24.00;47.30;;;;;;5033346;28;20035;-71
2023/05/17 07:10:52;;;;;;;6.82;3.10;;;24.00;47.40;;;;;;5033414;28;20518;-75
2023/05/17 07:13:18;;;;;;;3.85;3.03;;;24.00;47.40;;;;;;5042687;28;20037;-72
2023/05/17 07:15:44;;;;;;;8.60;3.40;;;24.00;47.50;;;;;;5044562;28;20029;-75
2023/05/17 07:18:10;;;;;;;6.60;3.17;;;23.90;47.70;;;;;;5052642;28;20514;-76
2023/05/17 07:20:36;;;;;;;5.43;3.60;;;23.90;47.80;;;;;;5052372;28;20037;-74
2023/05/17 07:23:02;;;;;;;6.38;3.22;;;23.90;47.90;;;;;;5055355;28;20087;-72
2023/05/17 07:25:28;;;;;;;6.25;3.65;;;23.90;47.90;;;;;;5056762;28;20425;-72
2023/05/17 07:27:53;;;;;;;5.47;3.67;;;24.00;48.20;;;;;;5057116;28;20033;-71
2023/05/17 07:30:19;;;;;;;4.05;3.65;;;24.00;48.20;;;;;;5055753;28;20032;-71
2023/05/17 07:32:45;;;;;;;4.43;3.78;;;24.00;48.20;;;;;;5057082;28;20491;-72
2023/05/17 07:35:11;;;;;;;5.22;3.80;;;24.00;48.40;;;;;;5056646;28;20033;-71
2023/05/17 07:37:36;;;;;;;4.78;4.10;;;24.00;48.50;;;;;;5056723;28;20025;-71
2023/05/17 07:40:04;;;;;;;5.60;3.88;;;24.10;48.70;;;;;;5056896;28;20043;-71
2023/05/17 07:42:30;;;;;;;5.28;3.72;;;24.00;48.70;;;;;;5056432;28;20032;-71
2023/05/17 07:44:55;;;;;;;5.75;3.97;;;24.10;48.70;;;;;;5056590;28;20021;-72
2023/05/17 07:47:21;;;;;;;5.47;3.50;;;24.10;48.80;;;;;;5056603;28;20025;-71
2023/05/17 07:49:47;;;;;;;5.18;3.67;;;24.10;48.70;;;;;;5056407;28;20021;-71
2023/05/17 07:52:13;;;;;;;5.82;3.72;;;24.10;48.60;;;;;;5056322;28;20136;-71
2023/05/17 07:54:38;;;;;;;5.72;3.92;;;24.10;48.70;;;;;;5056019;28;20147;-71
2023/05/17 07:57:04;;;;;;;5.40;4.00;;;24.10;48.70;;;;;;5056077;28;20029;-71
2023/05/17 07:59:30;;;;;;;4.15;3.53;;;24.10;48.80;;;;;;5056888;28;20029;-72
2023/05/17 08:01:56;;;;;;;5.80;4.10;;;24.20;49.00;;;;;;5056661;28;20379;-72
2023/05/17 08:04:23;;;;;;;5.43;3.80;;;24.10;49.10;;;;;;5056479;28;20071;-71
2023/05/17 08:06:49;;;;;;;6.22;3.83;;;24.10;49.30;;;;;;5056236;28;20116;-71
2023/05/17 08:09:15;;;;;;;5.43;4.15;;;24.10;49.30;;;;;;5056113;28;20060;-72
2023/05/17 08:11:44;;;;;;;5.40;3.88;;;24.10;49.30;;;;;;5056229;28;20029;-72
2023/05/17 08:14:14;;;;;;;4.85;3.65;;;24.20;49.20;;;;;;5055159;28;20558;-72
2023/05/17 08:16:45;;;;;;;4.50;3.40;;;24.20;49.40;;;;;;5056297;28;20021;-73
2023/05/17 08:19:13;;;;;;;4.68;3.63;;;24.30;49.40;;;;;;5056129;28;20028;-72
2023/05/17 08:21:40;;;;;;;5.80;3.30;;;24.30;49.30;;;;;;5054702;28;20414;-73
2023/05/17 08:24:06;;;;;;;5.13;3.85;;;24.40;49.20;;;;;;5054756;28;20033;-72
2023/05/17 08:26:32;;;;;;;7.00;3.65;;;24.50;49.10;;;;;;5054450;28;20087;-72
2023/05/17 08:28:57;;;;;;;7.13;3.65;;;24.60;49.00;;;;;;5056091;28;20029;-72
2023/05/17 08:31:23;;;;;;;4.20;3.67;;;24.60;48.80;;;;;;5055823;28;20049;-72
2023/05/17 08:33:48;;;;;;;4.65;3.50;;;24.70;48.90;;;;;;5055228;28;20499;-72
2023/05/17 08:36:15;;;;;;;6.30;3.80;;;24.60;49.00;;;;;;5055674;28;20053;-72
2023/05/17 08:38:41;;;;;;;5.55;3.60;;;24.60;49.70;;;;;;5055444;28;20430;-72
2023/05/17 08:41:08;;;;;;;4.13;3.40;;;24.60;49.00;;;;;;5055265;28;20120;-72
2023/05/17 08:43:34;;;;;;;5.30;3.38;;;24.60;48.90;;;;;;5054538;28;20519;-72
2023/05/17 08:46:02;;;;;;;5.03;3.60;;;24.60;48.90;;;;;;5054853;28;20090;-72
2023/05/17 08:48:31;;;;;;;4.00;3.50;;;24.60;48.80;;;;;;5055537;28;20087;-71
2023/05/17 08:50:58;;;;;;;5.85;3.75;;;24.60;48.80;;;;;;5054336;28;20463;-72
2023/05/17 08:53:25;;;;;;;5.25;3.38;;;24.60;49.00;;;;;;5055592;28;20021;-71
2023/05/17 08:56:01;;;;;;;5.45;3.40;;;24.50;49.00;;;;;;5055499;28;20021;-71
2023/05/17 08:58:29;;;;;;;4.82;4.25;;;24.50;49.00;;;;;;5054682;28;20040;-71
2023/05/17 09:00:57;;;;;;;5.55;4.07;;;24.60;49.00;;;;;;5055124;28;20494;-71
2023/05/17 09:03:24;;;;;;;4.00;3.60;;;24.50;49.00;;;;;;5055484;28;20029;-71
2023/05/17 09:05:53;;;;;;;5.63;3.70;;;24.60;49.10;;;;;;5055269;28;20460;-70
2023/05/17 09:08:22;;;;;;;5.20;3.90;;;24.70;49.10;;;;;;5053886;28;20033;-71
2023/05/17 09:10:48;;;;;;;5.18;3.30;;;24.70;49.00;;;;;;5053924;28;20471;-71
2023/05/17 09:13:15;;;;;;;4.38;3.53;;;24.70;48.80;;;;;;5053892;28;20068;-71
2023/05/17 09:15:46;;;;;;;4.25;3.30;;;24.80;48.80;;;;;;5053813;28;20029;-71
2023/05/17 09:18:12;;;;;;;4.55;3.50;;;24.80;48.60;;;;;;5055074;28;20021;-71
2023/05/17 09:20:38;;;;;;;4.20;3.28;;;24.80;48.40;;;;;;5053478;28;20036;-71
2023/05/17 09:23:10;;;;;;;4.93;3.80;;;24.90;48.30;;;;;;5053923;28;20028;-71
2023/05/17 09:25:36;;;;;;;5.20;3.45;;;24.90;48.20;;;;;;5053919;28;20429;-71
2023/05/17 09:28:06;;;;;;;3.80;3.17;;;25.00;48.10;;;;;;5055079;28;20434;-71
2023/05/17 09:30:34;;;;;;;5.00;3.67;;;25.00;48.00;;;;;;5053764;28;20513;-71
2023/05/17 09:33:10;;;;;;;3.88;3.30;;;25.00;48.00;;;;;;5054787;28;20049;-71
2023/05/17 09:35:37;;;;;;;4.40;3.60;;;25.00;47.90;;;;;;5054708;28;20021;-71
2023/05/17 09:38:10;;;;;;;5.40;3.72;;;24.90;48.00;;;;;;5053717;28;20379;-71
2023/05/17 09:40:40;;;;;;;4.03;3.60;;;24.90;48.00;;;;;;5054258;28;20494;-71
2023/05/17 09:43:06;;;;;;;6.70;3.42;;;24.80;48.00;;;;;;5054568;28;20066;-71
2023/05/17 09:45:32;;;;;;;4.97;3.10;;;24.90;48.00;;;;;;5052830;28;20083;-70
2023/05/17 09:48:14;;;;;;;5.53;3.20;;;24.90;48.00;;;;;;5054519;28;20087;-71
2023/05/17 09:50:45;;;;;;;3.47;3.17;;;24.90;48.00;;;;;;5054536;28;20035;-70
2023/05/17 09:53:27;;;;;;;4.75;3.30;;;24.90;47.90;;;;;;5054254;28;20025;-70
2023/05/17 09:55:59;;;;;;;4.63;3.47;;;25.00;48.10;;;;;;5054413;28;20036;-70
2023/05/17 09:58:26;;;;;;;4.90;3.28;;;25.00;47.90;;;;;;5054225;28;20021;-72
2023/05/17 10:00:53;;;;;;;4.28;3.35;;;25.00;47.80;;;;;;5054014;28;20033;-71
2023/05/17 10:03:20;;;;;;;6.10;3.40;;;25.10;47.80;;;;;;5054210;28;20060;-72
2023/05/17 10:05:49;;;;;;;4.50;3.13;;;25.10;47.60;;;;;;5054402;28;20079;-72
2023/05/17 10:08:19;;;;;;;3.97;3.20;;;25.10;47.40;;;;;;5052742;28;20025;-72
2023/05/17 10:10:45;;;;;;;4.28;3.10;;;25.20;47.40;;;;;;5054216;28;20059;-72
2023/05/17 10:13:12;;;;;;;3.40;3.10;;;25.20;47.30;;;;;;5053133;28;20029;-72
2023/05/17 10:15:39;;;;;;;3.65;2.90;;;25.20;47.20;;;;;;5054117;28;20063;-72
2023/05/17 10:18:07;;;;;;;3.13;2.83;;;25.30;47.10;;;;;;5053094;28;20025;-71
2023/05/17 10:20:34;;;;;;;4.25;3.00;;;25.30;47.00;;;;;;5052645;28;20512;-73
2023/05/17 10:23:02;;;;;;;4.57;2.80;;;25.30;46.90;;;;;;5052979;28;20039;-72
2023/05/17 10:25:28;;;;;;;3.92;2.90;;;25.30;46.80;;;;;;5053485;28;20025;-72
2023/05/17 10:27:55;;;;;;;4.03;3.00;;;25.30;46.70;;;;;;5053678;28;20032;-72
2023/05/17 10:30:21;;;;;;;4.63;2.70;;;25.30;46.60;;;;;;5052514;28;20124;-71
2023/05/17 10:32:49;;;;;;;4.75;2.70;;;25.20;46.40;;;;;;5053739;28;20045;-71
2023/05/17 10:35:15;;;;;;;5.07;2.70;;;25.20;46.50;;;;;;5053622;28;20031;-71
2023/05/17 10:37:41;;;;;;;3.42;2.75;;;25.30;46.50;;;;;;5053520;28;20052;-71
2023/05/17 10:40:14;;;;;;;5.68;2.80;;;25.30;46.40;;;;;;5053917;28;20529;-71
2023/05/17 10:42:50;;;;;;;2.78;2.45;;;25.30;47.00;;;;;;5052762;28;20033;-70
2023/05/17 10:45:20;;;;;;;5.97;3.05;;;25.30;46.40;;;;;;5052624;28;20028;-71
2023/05/17 10:47:47;;;;;;;3.13;2.45;;;25.30;46.40;;;;;;5052214;28;20102;-70
2023/05/17 10:50:20;;;;;;;4.05;2.60;;;25.30;46.40;;;;;;5051949;28;20360;-71
2023/05/17 10:52:47;;;;;;;4.13;2.70;;;25.40;46.50;;;;;;5053827;28;20025;-71
2023/05/17 10:55:16;;;;;;;3.38;2.88;;;25.40;46.60;;;;;;5053167;28;20025;-71
2023/05/17 10:57:42;;;;;;;4.55;3.00;;;25.40;47.10;;;;;;5052780;28;20021;-71
2023/05/17 11:00:18;;;;;;;3.55;2.75;;;25.40;46.40;;;;;;5053444;28;20162;-71
2023/05/17 11:02:43;;;;;;;4.22;2.90;;;25.30;46.30;;;;;;5052164;28;20025;-71
2023/05/17 11:05:23;;;;;;;2.92;2.60;;;25.40;46.30;;;;;;5053235;28;20033;-71
2023/05/17 11:07:49;;;;;;;4.43;2.80;;;25.40;46.20;;;;;;5051915;28;20065;-71
2023/05/17 11:10:16;;;;;;;3.42;2.88;;;25.30;46.20;;;;;;5053480;28;20057;-71
2023/05/17 11:12:43;;;;;;;4.80;3.00;;;25.30;46.20;;;;;;5053010;28;20017;-71
2023/05/17 11:15:13;;;;;;;3.88;2.58;;;25.30;46.20;;;;;;5053189;28;20025;-71
2023/05/17 11:17:42;;;;;;;3.13;2.58;;;25.30;46.10;;;;;;5053249;28;20539;-71
2023/05/17 11:20:14;;;;;;;4.82;2.70;;;25.30;46.10;;;;;;5053203;28;20138;-71
2023/05/17 11:22:54;;;;;;;2.58;2.15;;;25.20;46.00;;;;;;5053061;28;20029;-70
2023/05/17 11:25:20;;;;;;;3.70;2.58;;;25.20;45.80;;;;;;5052762;28;20025;-71
2023/05/17 11:27:47;;;;;;;5.30;2.63;;;25.20;46.00;;;;;;5051791;28;20112;-71
2023/05/17 11:30:28;;;;;;;3.92;2.45;;;25.20;45.90;;;;;;5051813;28;20041;-70
2023/05/17 11:33:05;;;;;;;3.95;2.70;;;25.20;45.90;;;;;;5052973;28;20044;-71
2023/05/17 11:35:38;;;;;;;3.95;2.60;;;25.20;45.70;;;;;;5052887;28;20463;-71
2023/05/17 11:38:29;;;;;;;2.40;2.20;;;25.20;45.80;;;;;;5051673;28;20112;-71
2023/05/17 11:40:56;;;;;;;3.55;2.60;;;25.20;45.30;;;;;;5053177;28;20041;-71
2023/05/17 11:43:24;;;;;;;6.15;2.50;;;25.20;45.70;;;;;;5051563;28;20033;-71
2023/05/17 11:45:56;;;;;;;4.45;2.53;;;25.20;45.70;;;;;;5052684;28;20055;-70
2023/05/17 11:48:23;;;;;;;3.30;2.55;;;25.20;45.60;;;;;;5051659;28;20519;-71
2023/05/17 11:50:50;;;;;;;4.18;2.47;;;25.20;45.60;;;;;;5052674;28;20036;-70
2023/05/17 11:53:17;;;;;;;3.80;2.60;;;25.20;45.50;;;;;;5052878;28;20494;-71
2023/05/17 11:55:46;;;;;;;2.67;2.30;;;25.20;45.50;;;;;;5051515;28;20040;-70
2023/05/17 11:58:16;;;;;;;3.15;2.30;;;25.20;45.50;;;;;;5051593;28;20025;-71
2023/05/17 12:00:43;;;;;;;2.22;2.03;;;25.20;45.50;;;;;;5052550;28;20486;-71
2023/05/17 12:03:23;;;;;;;3.22;2.40;;;25.20;45.40;;;;;;5051412;28;20029;-71
2023/05/17 12:05:50;;;;;;;2.30;2.10;;;25.20;45.30;;;;;;5052767;28;20059;-71
2023/05/17 12:08:18;;;;;;;2.63;2.20;;;25.30;45.40;;;;;;5053107;28;20037;-71
2023/05/17 12:10:49;;;;;;;2.40;2.20;;;25.20;45.30;;;;;;5056268;28;20037;-71
2023/05/17 12:13:15;;;;;;;2.83;2.40;;;25.30;45.30;;;;;;5056375;28;20057;-70
2023/05/17 12:15:44;;;;;;;4.05;2.28;;;25.30;45.10;;;;;;5055921;28;20478;-71
2023/05/17 12:18:10;;;;;;;2.40;2.20;;;25.30;45.10;;;;;;5056226;28;20029;-71
2023/05/17 12:20:37;;;;;;;2.95;2.30;;;25.30;45.00;;;;;;5054625;28;20040;-71
2023/05/17 12:23:03;;;;;;;2.50;2.30;;;25.40;45.00;;;;;;5055849;28;20025;-71
2023/05/17 12:25:29;;;;;;;4.05;2.22;;;25.40;44.90;;;;;;5056121;28;20029;-71
2023/05/17 12:28:13;;;;;;;2.22;2.00;;;25.50;44.90;;;;;;5055904;28;20123;-71
2023/05/17 12:30:39;;;;;;;2.28;2.05;;;25.50;44.40;;;;;;5056108;28;20045;-71
2023/05/17 12:33:05;;;;;;;2.38;2.00;;;25.50;44.60;;;;;;5056212;28;20056;-71
2023/05/17 12:35:31;;;;;;;3.58;2.00;;;25.60;44.60;;;;;;5055858;28;20033;-70
2023/05/17 12:37:58;;;;;;;2.40;2.20;;;25.60;44.50;;;;;;5054179;28;20471;-71
2023/05/17 12:40:23;;;;;;;3.95;2.38;;;25.70;44.40;;;;;;5054325;28;20099;-71
2023/05/17 12:42:49;;;;;;;3.22;2.05;;;25.80;44.30;;;;;;5055697;28;20451;-71
2023/05/17 12:45:15;;;;;;;3.22;2.08;;;26.00;44.20;;;;;;5056065;28;20025;-70
2023/05/17 12:47:42;;;;;;;4.05;2.10;;;26.10;44.00;;;;;;5055801;28;20036;-71